Krasnodar Tsentralny Air Base

RU-A019 · Krasnodarskiy, 俄罗斯

罗盘
风向 的 风向 080° Krasnodar Tsentralny Air Base 8/26
风: 8 kt, 3 beaufort

7 kt

1 kt
改变
0 ft 1.000 2.000 3.000 4.000 5.000
CAVOK
METAR URKK 232100Z 08004MPS CAVOK 04/01 Q1026 R05R/CLRD70 NOSIG RMK QFE766

METAR Krasnodar Tsentralny Air Base - RU-A019

Krasnodar Tsentralny Air Base是,俄罗斯中的小机场。 该机场位于纬度45,08413和经度38,94459。 该机场有一条跑道: 8/26. 这个机场没有ICAO代码,我们使用RU-A019作为参考。 机场在Rostov-na-donu FIR中。

该航空气象观测是针对Krasnodar Pashkovsky International Airport在2024年2月24日 00:00, 当地时间进行的。

机场观察

风向为080°,速度为8 kt。

天气为CAVOK。这意味着在5.000 ft或MSA(最低安全高度)以下(以较高者为准)以下没有云。这也意味着没有观测到积雨云或高耸的积云,可见度为10 km 或者更多或更高。此外,不会有雾,降雨或其他重要天气。

温度为4 °C,阵风为-1 °C。 露点为1 °C,相对湿度为81%。 海平面上的气压为1026 hPa (QNH)。

白天

今天,太阳从07:13升起,在18:02降落。 这适用于Krasnodar Tsentralny Air Base,世界夏令时可能有所不同。 当地时间与世界标准时间之间的时差为+3 小时。 当前,没有夏令时有效。

公司介绍

我们没有关于这个机场的公司信息。

体会

到Vliegles.nl去找飞行课程,跳伞和其他飞行体验。 浏览页面,了解Krasnodar Tsentralny Air Base附近所有可用的活动。 你也可以使用搜索功能来寻找你所在地附近的特定飞行课程、跳伞或其他飞行体验。

警示语

跑道状况 RWY 05R: 干燥, 摩擦系数 0.7

跑道

Id 标题 侧风 逆风 侧风 %
8/26 086°-266° 7 kt 10 %

逆风成分最大的方向会被突出显示,并用于横风计算。 这并不一定意味着这个方向在使用。

温度 & 天气

温度 4 °C
露点 1 °C
相对湿度 81%
风寒 -1 °C
Kp-index 0 (0-9)

跑道状况

05R 干燥, 摩擦系数 0.7

评论

QFE766未知降水 结束于 76, 结束于

白天

日出
07:12 (6:56)
中午
12:36
日落
18:01

小工具

你想在你的网站上有一个关于Krasnodar Tsentralny Air Base的当前航空天气(METAR)的小部件吗?

显示HTML代码
?>